createdAt,value
2022-10-28T00:00:45.808Z,95776.44
2022-10-28T00:03:12.460Z,95778.84
2022-10-28T00:05:39.080Z,95776.66
2022-10-28T00:08:06.071Z,95778.50
2022-10-28T00:10:32.871Z,95779.88
2022-10-28T00:13:00.929Z,95768.34
2022-10-28T00:15:27.563Z,95779.28
2022-10-28T00:17:54.429Z,95776.28
2022-10-28T00:20:21.299Z,95770.91
2022-10-28T00:22:47.969Z,95764.50
2022-10-28T00:25:14.785Z,95766.47
2022-10-28T00:27:41.489Z,95763.97
2022-10-28T00:30:10.694Z,95768.31
2022-10-28T00:32:37.280Z,95770.53
2022-10-28T00:35:04.580Z,95764.81
2022-10-28T00:37:31.249Z,95762.06
2022-10-28T00:39:57.962Z,95762.28
2022-10-28T00:42:24.705Z,95762.41
2022-10-28T00:44:57.448Z,95759.66
2022-10-28T00:47:56.039Z,95757.25
2022-10-28T00:50:38.686Z,95761.41
2022-10-28T00:53:07.632Z,95759.91
2022-10-28T00:55:36.199Z,95754.97
2022-10-28T00:58:05.985Z,95757.84
2022-10-28T01:00:32.851Z,95751.06
2022-10-28T01:03:01.008Z,95749.09
2022-10-28T01:05:31.254Z,95749.47
2022-10-28T01:08:00.201Z,95746.34
2022-10-28T01:10:40.198Z,95751.38
2022-10-28T01:13:15.509Z,95752.75
2022-10-28T01:15:48.236Z,95748.63
2022-10-28T01:18:27.672Z,95748.75
2022-10-28T01:21:34.087Z,95754.34
2022-10-28T01:24:15.550Z,95755.88
2022-10-28T01:27:01.004Z,95743.69
2022-10-28T01:30:06.327Z,95750.13
2022-10-28T01:32:44.035Z,95744.81
2022-10-28T01:35:18.057Z,95744.50
2022-10-28T01:37:49.156Z,95739.09
2022-10-28T01:40:20.852Z,95742.53
2022-10-28T01:42:54.432Z,95742.28
2022-10-28T01:45:27.768Z,95739.44
2022-10-28T01:48:01.490Z,95737.25
2022-10-28T01:50:32.745Z,95739.53
2022-10-28T01:53:03.677Z,95732.81
2022-10-28T01:55:34.789Z,95732.91
2022-10-28T01:58:04.417Z,95734.19
2022-10-28T02:00:32.871Z,95734.50
2022-10-28T02:03:01.051Z,95736.72
2022-10-28T02:05:39.566Z,95732.22
2022-10-28T02:08:21.535Z,95731.66
2022-10-28T02:11:00.089Z,95726.59
2022-10-28T02:13:34.197Z,95724.41
2022-10-28T02:16:07.398Z,95718.91
2022-10-28T02:18:43.778Z,95719.94
2022-10-28T02:21:18.140Z,95714.53
2022-10-28T02:23:48.481Z,95712.25
2022-10-28T02:26:22.201Z,95711.34
2022-10-28T02:28:55.055Z,95708.69
2022-10-28T02:31:26.545Z,95710.75
2022-10-28T02:33:59.529Z,95701.25
2022-10-28T02:36:29.684Z,95706.06
2022-10-28T02:38:58.795Z,95699.97
2022-10-28T02:41:30.463Z,95701.94
2022-10-28T02:44:01.980Z,95702.84
2022-10-28T02:46:31.561Z,95703.97
2022-10-28T02:49:03.871Z,95707.19
2022-10-28T02:51:35.356Z,95707.53
2022-10-28T02:54:07.498Z,95707.88
2022-10-28T02:56:38.394Z,95712.69
2022-10-28T02:59:09.646Z,95713.84
2022-10-28T03:01:36.489Z,95708.09
2022-10-28T03:04:05.244Z,95717.72
2022-10-28T03:06:31.914Z,95718.88
2022-10-28T03:08:58.719Z,95716.56
2022-10-28T03:11:25.348Z,95718.03
2022-10-28T03:13:51.958Z,95719.19
2022-10-28T03:16:18.621Z,95720.56
2022-10-28T03:18:45.269Z,95717.44
2022-10-28T03:21:13.223Z,95721.09
2022-10-28T03:23:39.856Z,95713.91
2022-10-28T03:26:06.543Z,95712.97
2022-10-28T03:28:33.240Z,95718.97
2022-10-28T03:30:59.934Z,95718.53
2022-10-28T03:33:26.659Z,95713.03
2022-10-28T03:35:53.310Z,95719.38
2022-10-28T03:38:21.319Z,95709.38
2022-10-28T03:40:48.841Z,95711.13
2022-10-28T03:43:15.568Z,95713.66
2022-10-28T03:45:42.273Z,95717.75
2022-10-28T03:48:08.993Z,95710.88
2022-10-28T03:50:35.846Z,95715.38
2022-10-28T03:53:02.536Z,95715.91
2022-10-28T03:55:30.562Z,95707.56
2022-10-28T03:58:00.277Z,95717.66
2022-10-28T04:00:27.112Z,95713.97
2022-10-28T04:02:54.053Z,95713.97
2022-10-28T04:05:21.606Z,95717.41
2022-10-28T04:07:48.494Z,95715.81
2022-10-28T04:10:15.670Z,95719.72
2022-10-28T04:12:43.644Z,95718.69
2022-10-28T04:15:10.538Z,95722.34
2022-10-28T04:17:37.211Z,95722.16
2022-10-28T04:20:04.591Z,95720.63
2022-10-28T04:22:31.221Z,95724.06
2022-10-28T04:24:57.866Z,95715.47
2022-10-28T04:27:24.487Z,95719.72
2022-10-28T04:29:52.462Z,95716.25
2022-10-28T04:32:19.116Z,95718.56
2022-10-28T04:34:45.764Z,95724.31
2022-10-28T04:37:14.910Z,95721.44
2022-10-28T04:39:43.601Z,95717.41
2022-10-28T04:42:10.193Z,95726.38
2022-10-28T04:44:37.125Z,95722.56
2022-10-28T04:47:05.210Z,95719.38
2022-10-28T04:49:34.324Z,95715.84
2022-10-28T04:52:03.552Z,95711.69
2022-10-28T04:54:30.215Z,95717.66
2022-10-28T04:56:56.914Z,95713.63
2022-10-28T04:59:23.612Z,95701.69
2022-10-28T05:01:50.440Z,95702.16
2022-10-28T05:04:18.556Z,95708.03
2022-10-28T05:06:45.247Z,95708.25
2022-10-28T05:09:11.986Z,95709.84
2022-10-28T05:11:38.710Z,95709.84
2022-10-28T05:14:05.406Z,95702.97
2022-10-28T05:16:32.048Z,95700.91
2022-10-28T05:18:58.745Z,95704.13
2022-10-28T05:21:26.851Z,95708.47
2022-10-28T05:23:53.574Z,95697.44
2022-10-28T05:26:20.315Z,95705.94
2022-10-28T05:28:49.181Z,95699.28
2022-10-28T05:31:15.944Z,95700.78
2022-10-28T05:33:42.630Z,95703.28
2022-10-28T05:36:09.312Z,95697.47
2022-10-28T05:38:37.398Z,95704.00
2022-10-28T05:41:04.164Z,95704.00
2022-10-28T05:43:30.826Z,95702.16
2022-10-28T05:45:58.192Z,95702.50
2022-10-28T05:48:25.017Z,95710.41
2022-10-28T05:50:51.850Z,95706.19
2022-10-28T05:53:18.552Z,95708.03
2022-10-28T05:55:47.819Z,95711.66
2022-10-28T05:58:14.867Z,95715.34
2022-10-28T06:00:41.559Z,95715.13
2022-10-28T06:03:12.034Z,95717.19
2022-10-28T06:05:41.450Z,95718.56
2022-10-28T06:08:08.306Z,95722.13
2022-10-28T06:10:35.003Z,95723.72
2022-10-28T06:13:01.715Z,95726.63
2022-10-28T06:15:28.426Z,95720.19
2022-10-28T06:17:55.060Z,95721.78
2022-10-28T06:20:21.707Z,95718.44
2022-10-28T06:22:49.232Z,95721.56
2022-10-28T06:25:17.408Z,95722.59
2022-10-28T06:27:44.247Z,95726.84
2022-10-28T06:30:13.045Z,95732.91
2022-10-28T06:32:39.698Z,95739.56
2022-10-28T06:35:06.502Z,95736.00
2022-10-28T06:37:33.163Z,95735.91
2022-10-28T06:39:59.859Z,95731.53
2022-10-28T06:42:26.560Z,95726.59
2022-10-28T06:44:53.257Z,95735.69
2022-10-28T06:47:23.005Z,95735.78
2022-10-28T06:49:49.719Z,95735.91
2022-10-28T06:52:16.671Z,95734.97
2022-10-28T06:54:43.629Z,95733.50
2022-10-28T06:57:10.619Z,95732.56
2022-10-28T06:59:37.330Z,95729.81
2022-10-28T07:02:04.236Z,95725.75
2022-10-28T07:04:33.359Z,95731.03
2022-10-28T07:07:00.140Z,95729.41
2022-10-28T07:09:26.766Z,95734.41
2022-10-28T07:11:55.121Z,95734.47
2022-10-28T07:14:22.460Z,95737.88
2022-10-28T07:16:49.169Z,95751.16
2022-10-28T07:19:19.028Z,95754.38
2022-10-28T07:21:49.783Z,95747.38
2022-10-28T07:24:16.484Z,95753.78
2022-10-28T07:26:43.221Z,95760.44
2022-10-28T07:29:09.893Z,95755.13
2022-10-28T07:31:36.496Z,95755.63
2022-10-28T07:34:03.215Z,95758.81
2022-10-28T07:36:29.897Z,95767.53
2022-10-28T07:38:58.070Z,95769.13
2022-10-28T07:41:25.401Z,95762.50
2022-10-28T07:43:52.041Z,95768.59
2022-10-28T07:46:19.647Z,95763.31
2022-10-28T07:48:46.414Z,95759.78
2022-10-28T07:51:15.445Z,95755.44
2022-10-28T07:53:42.445Z,95750.22
2022-10-28T07:56:13.791Z,95749.81
2022-10-28T07:58:40.820Z,95753.38
2022-10-28T08:01:09.243Z,95747.34
2022-10-28T08:03:39.049Z,95751.66
2022-10-28T08:06:08.865Z,95752.97
2022-10-28T08:08:35.865Z,95748.19
2022-10-28T08:11:10.491Z,95746.31
2022-10-28T08:13:40.237Z,95750.00
2022-10-28T08:16:08.162Z,95748.06
2022-10-28T08:18:35.860Z,95742.88
2022-10-28T08:21:04.083Z,95743.81
2022-10-28T08:23:31.059Z,95737.72
2022-10-28T08:25:58.107Z,95734.78
2022-10-28T08:28:26.202Z,95735.88
2022-10-28T08:31:04.048Z,95729.09
2022-10-28T08:33:34.944Z,95725.28
2022-10-28T08:36:01.704Z,95724.38
2022-10-28T08:38:28.391Z,95726.50
2022-10-28T08:41:04.960Z,95720.19
2022-10-28T08:43:57.045Z,95720.50
2022-10-28T08:46:42.387Z,95721.50
2022-10-28T08:49:14.627Z,95721.28
2022-10-28T08:51:49.358Z,95724.31
2022-10-28T08:54:21.377Z,95713.09
2022-10-28T08:56:49.756Z,95716.28
2022-10-28T08:59:22.358Z,95721.59
2022-10-28T09:01:52.389Z,95715.75
2022-10-28T09:04:26.506Z,95718.75
2022-10-28T09:06:53.945Z,95721.44
2022-10-28T09:09:22.908Z,95711.63
2022-10-28T09:24:23.148Z,95721.53
2022-10-28T09:26:58.655Z,95717.97
2022-10-28T09:29:44.616Z,95724.25
2022-10-28T09:32:41.752Z,95723.47
2022-10-28T09:35:16.566Z,95729.22
2022-10-28T09:40:30.973Z,95730.72
2022-10-28T09:43:05.539Z,95724.19
2022-10-28T09:45:35.924Z,95719.38
2022-10-28T09:48:09.310Z,95721.91
2022-10-28T09:50:37.995Z,95724.06
2022-10-28T09:53:09.449Z,95726.34
2022-10-28T09:55:36.190Z,95715.84
2022-10-28T09:58:03.193Z,95727.03
2022-10-28T10:00:29.864Z,95720.19
2022-10-28T10:02:58.020Z,95724.59
2022-10-28T10:05:26.248Z,95724.06
2022-10-28T10:07:57.849Z,95726.84
2022-10-28T10:10:27.700Z,95723.22
2022-10-28T10:12:59.439Z,95722.00
2022-10-28T10:15:30.427Z,95708.28
2022-10-28T10:18:00.551Z,95715.78
2022-10-28T10:20:27.619Z,95714.81
2022-10-28T10:22:55.978Z,95714.63
2022-10-28T10:25:24.460Z,95715.84
2022-10-28T10:27:53.149Z,95708.94
2022-10-28T10:30:23.221Z,95709.06
2022-10-28T10:32:51.357Z,95708.25
2022-10-28T10:35:26.416Z,95708.66
2022-10-28T10:37:53.882Z,95704.81
2022-10-28T10:40:25.181Z,95705.00
2022-10-28T10:43:10.009Z,95703.56
2022-10-28T10:45:39.350Z,95700.22
2022-10-28T10:48:15.065Z,95695.91
2022-10-28T10:50:43.798Z,95703.44
2022-10-28T10:53:23.218Z,95700.47
2022-10-28T10:55:54.966Z,95695.53
2022-10-28T10:58:24.246Z,95689.41
2022-10-28T11:00:52.979Z,95684.31
2022-10-28T11:03:25.881Z,95683.16
2022-10-28T11:06:18.410Z,95683.28
2022-10-28T11:08:44.207Z,95681.09
2022-10-28T11:11:14.785Z,95674.84
2022-10-28T11:13:45.149Z,95674.47
2022-10-28T11:16:21.519Z,95661.44
2022-10-28T11:18:50.766Z,95662.41
2022-10-28T11:21:42.439Z,95660.59
2022-10-28T11:24:25.474Z,95653.72
2022-10-28T11:27:02.720Z,95647.78
2022-10-28T11:29:29.478Z,95654.91
2022-10-28T11:32:11.725Z,95646.25
2022-10-28T11:35:04.824Z,95642.31
2022-10-28T11:37:45.204Z,95635.66
2022-10-28T11:40:25.513Z,95633.03
2022-10-28T11:43:06.423Z,95631.09
2022-10-28T11:45:38.917Z,95630.53
2022-10-28T11:48:21.204Z,95616.63
2022-10-28T11:51:09.889Z,95620.38
2022-10-28T11:53:54.142Z,95614.72
2022-10-28T11:56:33.372Z,95614.59
2022-10-28T11:59:15.225Z,95612.56
2022-10-28T12:01:53.327Z,95606.81
2022-10-28T12:04:32.989Z,95597.78
2022-10-28T12:07:15.738Z,95597.31
2022-10-28T12:09:56.636Z,95598.09
2022-10-28T12:12:30.826Z,95602.19
2022-10-28T12:15:11.413Z,95589.19
2022-10-28T12:17:46.220Z,95587.25
2022-10-28T12:20:22.239Z,95587.19
2022-10-28T12:22:53.262Z,95587.16
2022-10-28T12:25:25.388Z,95580.34
2022-10-28T12:27:55.791Z,95584.06
2022-10-28T12:30:27.228Z,95577.59
2022-10-28T12:32:58.867Z,95580.06
2022-10-28T12:35:30.130Z,95571.56
2022-10-28T12:38:03.107Z,95568.03
2022-10-28T12:40:35.172Z,95574.72
2022-10-28T12:43:06.468Z,95570.44
2022-10-28T12:45:35.236Z,95574.09
2022-10-28T12:48:09.350Z,95568.66
2022-10-28T12:50:45.118Z,95573.63
2022-10-28T12:53:24.746Z,95577.38
2022-10-28T12:55:56.145Z,95578.78
2022-10-28T12:58:30.090Z,95582.44
2022-10-28T13:01:01.379Z,95588.00
2022-10-28T13:03:28.334Z,95577.84
2022-10-28T13:06:07.641Z,95583.75
2022-10-28T13:08:59.268Z,95576.78
2022-10-28T13:11:52.661Z,95574.75
2022-10-28T13:14:54.431Z,95573.16
2022-10-28T13:17:37.298Z,95576.56
2022-10-28T13:20:17.476Z,95566.50
2022-10-28T13:22:57.817Z,95569.09
2022-10-28T13:25:49.186Z,95578.63
2022-10-28T13:28:17.941Z,95571.97
2022-10-28T13:30:56.069Z,95575.31
2022-10-28T13:33:27.121Z,95573.72
2022-10-28T13:35:55.451Z,95572.47
2022-10-28T13:38:26.109Z,95573.38
2022-10-28T13:41:28.597Z,95574.72
2022-10-28T13:44:26.731Z,95574.69
2022-10-28T13:47:24.451Z,95568.88
2022-10-28T13:50:32.399Z,95572.59
2022-10-28T13:53:42.690Z,95582.19
2022-10-28T13:56:21.728Z,95576.53
2022-10-28T13:58:51.350Z,95572.22
2022-10-28T14:02:01.677Z,95581.94
2022-10-28T14:04:38.002Z,95576.38
2022-10-28T14:07:21.468Z,95581.38
2022-10-28T14:09:52.664Z,95585.38
2022-10-28T14:12:25.963Z,95579.53
2022-10-28T14:14:58.558Z,95580.78
2022-10-28T14:17:30.839Z,95573.91
2022-10-28T14:19:57.660Z,95574.72
2022-10-28T14:22:33.589Z,95580.13
2022-10-28T14:25:00.859Z,95581.91
2022-10-28T14:27:30.655Z,95575.22
2022-10-28T14:30:21.331Z,95574.66
2022-10-28T14:32:58.551Z,95575.22
2022-10-28T14:35:33.268Z,95571.25
2022-10-28T14:38:40.657Z,95583.06
2022-10-28T14:41:33.930Z,95574.22
2022-10-28T14:44:11.141Z,95579.97
2022-10-28T14:46:52.299Z,95577.16
2022-10-28T14:49:24.092Z,95573.06
2022-10-28T14:51:52.309Z,95576.16
2022-10-28T14:54:30.334Z,95580.50
2022-10-28T14:56:57.575Z,95574.69
2022-10-28T14:59:27.619Z,95576.22
2022-10-28T15:02:01.227Z,95578.44
2022-10-28T15:04:29.510Z,95576.75
2022-10-28T15:06:56.766Z,95580.94
2022-10-28T15:09:28.021Z,95582.09
2022-10-28T15:11:58.931Z,95587.41
2022-10-28T15:14:34.432Z,95577.59
2022-10-28T15:17:10.565Z,95590.44
2022-10-28T15:19:38.495Z,95585.88
2022-10-28T15:22:11.822Z,95586.88
2022-10-28T15:24:43.154Z,95581.31
2022-10-28T15:27:14.023Z,95579.09
2022-10-28T15:29:42.398Z,95580.66
2022-10-28T15:32:16.201Z,95585.06
2022-10-28T15:34:43.735Z,95588.72
2022-10-28T15:37:10.935Z,95588.22
2022-10-28T15:39:40.228Z,95588.34
2022-10-28T15:42:29.668Z,95599.84
2022-10-28T15:44:57.729Z,95593.59
2022-10-28T15:47:29.859Z,95598.75
2022-10-28T15:50:19.955Z,95593.47
2022-10-28T15:52:48.225Z,95601.59
2022-10-28T15:55:35.796Z,95596.50
2022-10-28T15:58:40.371Z,95599.94
2022-10-28T16:01:10.629Z,95599.75
2022-10-28T16:03:42.761Z,95602.09
2022-10-28T16:06:22.383Z,95598.94
2022-10-28T16:09:00.075Z,95602.25
2022-10-28T16:11:29.705Z,95598.75
2022-10-28T16:13:56.750Z,95599.38
2022-10-28T16:28:25.553Z,95601.16
2022-10-28T16:33:39.383Z,95610.25
2022-10-28T16:36:06.892Z,95611.09
2022-10-28T16:38:34.326Z,95622.72
2022-10-28T16:41:03.189Z,95622.81
2022-10-28T16:43:32.169Z,95615.13
2022-10-28T16:46:00.926Z,95621.56
2022-10-28T16:48:29.777Z,95617.28
2022-10-28T16:50:59.431Z,95624.03
2022-10-28T16:53:27.223Z,95623.81
2022-10-28T16:55:58.838Z,95630.03
2022-10-28T16:58:26.984Z,95625.84
2022-10-28T17:00:56.307Z,95619.50
2022-10-28T17:03:23.313Z,95624.28
2022-10-28T17:05:50.084Z,95626.34
2022-10-28T17:08:26.448Z,95629.53
2022-10-28T17:11:04.997Z,95625.66
2022-10-28T17:16:38.038Z,95638.19
2022-10-28T17:19:07.461Z,95635.09
2022-10-28T17:21:34.846Z,95640.56
2022-10-28T17:24:02.430Z,95641.16
2022-10-28T17:29:32.271Z,95640.88
2022-10-28T17:32:00.491Z,95636.91
2022-10-28T17:34:27.240Z,95635.91
2022-10-28T17:36:54.124Z,95640.84
2022-10-28T17:39:25.846Z,95635.84
2022-10-28T17:42:13.856Z,95645.28
2022-10-28T17:44:40.903Z,95641.59
2022-10-28T17:47:09.098Z,95647.47
2022-10-28T17:49:36.517Z,95645.63
2022-10-28T17:52:04.033Z,95647.53
2022-10-28T17:54:32.536Z,95649.38
2022-10-28T18:02:31.546Z,95652.09
2022-10-28T18:04:58.582Z,95647.34
2022-10-28T18:07:26.745Z,95644.19
2022-10-28T18:09:53.644Z,95656.47
2022-10-28T18:12:20.655Z,95650.00
2022-10-28T18:14:48.059Z,95651.31
2022-10-28T18:17:16.696Z,95656.91
2022-10-28T18:19:46.302Z,95656.09
2022-10-28T18:22:23.022Z,95656.91
2022-10-28T18:24:50.960Z,95653.16
2022-10-28T18:27:17.973Z,95651.59
2022-10-28T18:29:46.509Z,95649.22
2022-10-28T18:35:16.696Z,95657.56
2022-10-28T18:37:43.695Z,95664.22
2022-10-28T18:40:11.436Z,95655.13
2022-10-28T18:42:38.144Z,95664.72
2022-10-28T18:45:05.666Z,95654.03
2022-10-28T18:47:34.386Z,95662.56
2022-10-28T18:50:01.274Z,95655.63
2022-10-28T18:55:07.123Z,95663.94
2022-10-28T18:57:34.706Z,95659.19
2022-10-28T19:00:18.737Z,95663.19
2022-10-28T19:08:16.654Z,95668.56
2022-10-28T19:10:44.887Z,95665.13
2022-10-28T19:13:15.462Z,95667.25
2022-10-28T19:15:47.605Z,95663.25
2022-10-28T19:21:15.198Z,95661.94
2022-10-28T19:26:28.236Z,95659.84
2022-10-28T19:28:55.463Z,95661.47
2022-10-28T19:34:05.981Z,95672.13
2022-10-28T19:36:36.341Z,95666.78
2022-10-28T19:39:03.967Z,95669.16
2022-10-28T19:41:32.866Z,95667.53
2022-10-28T19:44:00.529Z,95672.88
2022-10-28T21:18:15.155Z,95690.63
2022-10-28T21:27:04.334Z,95691.94
2022-10-28T21:35:32.268Z,95690.63
2022-10-28T22:22:31.656Z,95679.28
2022-10-28T22:27:48.868Z,95683.53
2022-10-28T22:33:11.213Z,95675.84
2022-10-28T23:01:43.238Z,95672.09
2022-10-28T23:04:11.487Z,95668.63
2022-10-28T23:06:38.539Z,95668.34
2022-10-28T23:09:05.569Z,95666.47
2022-10-28T23:17:11.740Z,95657.94
2022-10-28T23:28:19.953Z,95672.34
2022-10-28T23:36:45.787Z,95674.72
2022-10-28T23:39:12.524Z,95672.28
2022-10-28T23:42:01.302Z,95673.63
2022-10-28T23:44:28.157Z,95672.56
2022-10-28T23:46:54.916Z,95680.03
2022-10-28T23:49:21.927Z,95669.91
2022-10-28T23:54:38.715Z,95674.09
2022-10-28T23:57:05.681Z,95676.19
